QUERALBS (Ripollès)





Hora UTC 21:05
Temperatura 19.1 ºC
Humedad 84.3 %
Pluja 0.0 mm
Velocidad viento 0.0 km/h
Dirección viento NNE

Datos diarios 2024-07-24



Hora UTC (invierno +1h; verano +2h)
Temperatura (ºC) Humedad (%) Velocidad viento (km/h) Precipitación (mm)
Hora UTC Aire Humedad Vel. Dir. Vel. Max Dir. Intent. máx 5 min.
00:05 17.7 77.6 1.0 WSW 1.0 NNW 0.0
00:10 17.6 77.9 0.0 NNE 0.0 SSW 0.0
00:15 17.5 78.2 0.4 WSW 2.5 W 0.0
00:20 17.5 77.7 0.0 NNE 0.0 WNW 0.0
00:25 17.4 78.4 0.1 SSW 1.4 S 0.0
00:30 17.2 79.5 0.0 S 1.1 S 0.0
00:35 17.0 80.2 0.0 NNE 0.0 S 0.0
00:40 17.0 80.2 0.0 NNE 0.0 S 0.0
00:45 17.0 79.7 0.2 W 1.8 W 0.0
00:50 16.9 80.2 1.0 SW 2.1 WSW 0.0
00:55 16.9 80.2 0.0 NNE 0.0 SSE 0.0
01:00 16.8 80.2 0.0 NNE 0.0 NW 0.0
01:05 16.8 80.4 0.0 WNW 1.1 WNW 0.0
01:10 16.9 79.7 0.0 E 1.4 E 0.0
01:15 16.8 80.2 0.7 N 3.2 NW 0.0
01:20 16.7 80.6 1.1 NNW 4.2 NNW 0.0
01:25 16.6 81.4 0.1 WSW 1.4 WSW 0.0
01:30 16.6 81.0 0.0 NNE 0.0 WSW 0.0
01:35 16.6 81.4 0.0 NNE 0.0 WSW 0.0
01:40 16.5 81.6 0.0 NNE 0.0 WSW 0.0
01:45 16.5 81.4 0.7 SW 1.8 WSW 0.0
01:50 16.5 80.8 0.0 NNE 0.0 W 0.0
01:55 16.6 80.4 0.4 NNE 2.1 NNE 0.0
02:00 16.6 81.1 0.0 NNE 1.1 NNE 0.0
02:05 16.4 81.9 0.0 NNE 0.0 SW 0.0
02:10 16.3 82.1 0.0 NNE 0.0 NNW 0.0
02:15 16.3 82.3 0.0 NNE 0.0 SW 0.0
02:20 16.5 81.6 0.4 S 2.8 SSE 0.0
02:25 16.3 82.1 0.3 WNW 2.1 NW 0.0
02:30 16.3 82.4 0.4 SW 2.1 WSW 0.0
02:35 16.1 83.0 0.5 SW 1.8 SW 0.0
02:40 16.1 82.5 0.0 NNE 0.0 W 0.0
02:45 16.1 82.8 1.4 N 5.6 NNE 0.0
02:50 16.1 82.5 2.4 N 6.0 NNE 0.0
02:55 16.0 83.0 1.4 N 5.3 N 0.0
03:00 15.8 84.0 0.0 SSW 1.1 SSW 0.0
03:05 16.0 83.6 0.0 NNE 0.0 NE 0.0
03:10 15.9 83.8 0.4 WSW 2.1 W 0.0
03:15 15.9 83.3 0.4 WSW 2.1 WSW 0.0
03:20 16.0 83.0 0.0 NNE 0.0 N 0.0
03:25 16.0 82.8 0.2 SSW 1.8 SW 0.0
03:30 15.8 83.5 0.0 NNE 0.0 W 0.0
03:35 15.8 84.0 1.3 SW 3.2 SSW 0.0
03:40 15.9 82.8 0.1 N 1.4 N 0.0
03:45 15.8 83.6 0.4 SW 2.1 SW 0.0
03:50 15.8 83.7 0.0 NNE 0.0 E 0.0
03:55 15.7 83.9 0.0 WSW 1.1 WSW 0.0
04:00 15.7 83.8 0.1 WSW 1.1 W 0.0
04:05 15.8 83.1 0.0 NNE 0.0 SW 0.0
04:10 15.9 82.8 1.0 WSW 2.1 W 0.0
04:15 15.8 82.7 0.0 NNE 0.0 SW 0.0
04:20 15.7 83.2 0.0 NNE 0.0 W 0.0
04:25 15.5 84.4 1.4 SW 2.5 S 0.0
04:30 15.7 83.2 0.1 WSW 1.4 WSW 0.0
04:35 15.5 83.8 1.0 SSW 3.9 SSW 0.0
04:40 15.4 84.1 0.0 NNE 0.0 0.0
04:45 15.3 83.8 0.1 NNW 1.4 NW 0.0
04:50 15.3 84.0 0.2 WSW 1.8 SW 0.0
04:55 15.4 83.1 1.3 W 2.8 WSW 0.0
05:00 15.4 82.9 1.1 WSW 3.2 N 0.0
05:05 15.4 83.1 0.0 SW 1.1 SW 0.0
05:10 15.6 82.1 0.9 WSW 1.8 SW 0.0
05:15 15.7 81.7 0.1 W 1.4 WSW 0.0
05:20 15.8 81.8 0.0 NNE 0.0 NE 0.0
05:25 15.8 82.1 0.1 SSW 1.8 SSW 0.0
05:30 15.8 82.7 0.0 NNE 0.0 S 0.0
05:35 15.9 81.8 1.4 WSW 2.5 WSW 0.0
05:40 16.2 79.8 1.2 NW 3.9 N 0.0
05:45 16.3 81.2 0.4 W 2.8 WNW 0.0
05:50 16.2 81.9 1.4 WSW 2.8 SW 0.0
05:55 16.2 82.7 0.0 NNE 0.0 SW 0.0
06:00 16.3 81.2 0.0 NNE 0.0 W 0.0
06:05 16.7 80.5 0.0 NNE 0.0 NE 0.0
06:10 17.8 77.3 0.0 NNE 0.0 NE 0.0
06:15 18.9 70.4 0.4 SSE 1.8 SSE 0.0
06:20 19.3 70.4 1.0 S 2.1 S 0.0
06:25 19.9 67.9 0.4 E 1.8 ESE 0.0
06:30 20.4 68.7 0.2 ESE 1.8 ESE 0.0
06:35 20.7 64.7 0.6 E 2.1 ESE 0.0
06:40 20.8 63.1 1.2 E 3.9 ENE 0.0
06:45 20.8 64.8 2.2 ESE 4.6 ENE 0.0
06:50 21.0 65.5 1.6 E 3.9 E 0.0
06:55 21.2 63.9 1.3 E 4.2 E 0.0
07:00 21.4 62.2 2.0 E 4.2 E 0.0
07:05 21.6 62.8 2.2 ESE 4.2 SE 0.0
07:10 21.9 64.6 2.4 SSE 4.6 SE 0.0
07:15 22.1 62.2 2.2 SE 4.2 ENE 0.0
07:20 21.9 60.0 3.1 ENE 5.3 NE 0.0
07:25 21.8 59.5 3.8 ENE 6.4 E 0.0
07:30 21.9 59.2 4.4 ENE 7.1 E 0.0
07:35 22.1 62.2 4.0 ESE 6.0 ENE 0.0
07:40 22.6 64.0 3.0 SSE 4.9 E 0.0
07:45 23.0 61.8 2.5 ESE 4.6 SE 0.0
07:50 23.0 60.9 2.7 E 6.0 ESE 0.0
07:55 23.0 59.6 1.3 ENE 5.6 E 0.0
08:00 23.2 56.0 2.8 E 7.1 ESE 0.0
08:05 23.5 54.6 2.2 SE 4.9 SE 0.0
08:10 23.6 48.6 3.7 E 7.4 ESE 0.0
08:15 23.6 50.7 3.1 ESE 7.8 E 0.0
08:20 23.7 49.3 3.4 ESE 7.4 ESE 0.0
08:25 23.9 49.2 3.7 SE 6.4 ESE 0.0
08:30 24.4 49.4 3.1 ESE 7.8 SE 0.0
08:35 24.5 46.8 4.6 ESE 8.8 SE 0.0
08:40 24.8 48.1 4.5 SE 9.5 ESE 0.0
08:45 25.3 47.1 5.9 SE 9.9 SE 0.0
08:50 25.3 46.9 6.8 SE 10.6 SE 0.0
08:55 25.1 47.9 7.1 SE 14.1 ESE 0.0
09:00 25.1 47.9 7.4 SE 15.5 SSE 0.0
09:05 25.0 48.2 7.4 SE 12.4 SSE 0.0
09:10 25.1 48.5 7.4 SSE 13.4 SE 0.0
09:15 25.0 48.2 7.6 SSE 12.0 SE 0.0
09:20 25.2 48.3 7.6 SSE 13.1 SE 0.0
09:25 25.5 47.7 6.2 SSE 9.9 SSW 0.0
09:30 25.4 47.5 7.1 SE 9.9 SSE 0.0
09:35 25.5 48.7 7.0 SSE 12.0 SE 0.0
09:40 25.6 47.8 5.4 SE 9.9 SE 0.0
09:45 25.7 48.7 6.3 SE 10.9 SE 0.0
09:50 25.9 49.0 7.3 SE 13.4 SE 0.0
09:55 25.9 48.3 6.7 SE 13.4 SSE 0.0
10:00 26.0 48.6 6.4 SE 13.8 SSE 0.0
10:05 26.2 48.0 5.7 SE 12.7 SE 0.0
10:10 26.4 47.6 7.5 SSE 12.0 SSE 0.0
10:15 26.4 48.3 7.6 SSE 12.4 SSE 0.0
10:20 26.4 49.4 7.2 SE 13.1 SSE 0.0
10:25 26.7 48.6 7.8 SSE 12.4 SE 0.0
10:30 26.8 47.8 8.9 SSE 14.5 SSE 0.0
10:35 26.7 47.9 8.8 SSE 13.1 SSE 0.0
10:40 26.6 48.5 9.5 SSE 14.8 S 0.0
10:45 26.4 48.6 8.8 SSE 14.1 SSE 0.0
10:50 26.7 49.0 8.9 SSE 14.8 SE 0.0
10:55 26.7 48.1 10.1 S 18.4 SSE 0.0
11:00 26.5 48.9 9.8 SSE 16.2 S 0.0
11:05 26.8 48.1 9.3 SSE 14.8 S 0.0
11:10 26.8 48.4 8.0 SSE 15.2 SSE 0.0
11:15 27.0 47.5 10.5 SSE 17.3 SSE 0.0
11:20 26.8 48.0 9.4 SSE 16.2 SSE 0.0
11:25 26.9 47.2 9.4 SSE 17.3 SE 0.0
11:30 26.9 47.7 8.9 SSE 18.7 SSE 0.0
11:35 27.2 46.9 10.4 SSE 19.1 SSE 0.0
11:40 27.1 46.8 8.4 SSW 15.5 SW 0.0
11:45 27.0 46.9 9.0 SSE 18.7 SSE 0.0
11:50 27.2 46.9 9.0 SSE 19.8 S 0.0
11:55 27.3 45.8 11.1 SSE 23.6 SSE 0.0
12:00 27.5 45.2 9.6 SE 21.9 SE 0.0
12:05 27.2 46.3 9.8 S 20.5 S 0.0
12:10 27.4 46.1 7.2 SSE 12.7 S 0.0
12:15 27.9 44.6 8.6 SE 15.5 ESE 0.0
12:20 27.6 43.7 9.4 SSE 15.2 SSE 0.0
12:25 27.4 44.2 10.1 S 18.4 S 0.0
12:30 27.2 44.5 9.5 SSE 15.5 SE 0.0
12:35 26.9 44.4 4.7 SSE 8.5 SSE 0.0
12:40 27.4 44.3 8.9 SSE 17.6 S 0.0
12:45 27.4 43.6 7.9 S 15.5 SSE 0.0
12:50 27.9 43.5 8.1 SSE 18.0 S 0.0
12:55 28.4 42.0 7.5 SSE 16.6 SE 0.0
13:00 28.3 41.5 9.5 SSE 19.4 S 0.0
13:05 27.6 43.0 9.5 SSE 16.2 SE 0.0
13:10 28.0 42.5 6.4 SE 13.4 SE 0.0
13:15 27.8 42.2 6.1 SE 16.2 SSE 0.0
13:20 27.2 43.5 9.8 S 16.9 S 0.0
13:25 27.0 44.8 5.9 S 14.5 S 0.0
13:30 27.7 44.6 6.6 S 14.8 SSE 0.0
13:35 28.2 42.3 7.2 SSE 19.1 ESE 0.0
13:40 28.5 41.2 5.0 SSW 12.4 SSW 0.0
13:45 27.8 43.1 6.5 S 14.8 SSE 0.0
13:50 27.1 44.6 7.9 S 13.8 SSE 0.0
13:55 26.7 46.5 5.7 S 13.4 SE 0.0
14:00 26.5 46.0 6.0 SW 16.2 SSE 0.0
14:05 26.5 45.9 7.6 SSE 13.1 S 0.0
14:10 26.8 45.5 2.8 SSE 7.1 S 0.0
14:15 27.1 43.8 4.6 SE 8.5 SSE 0.0
14:20 27.0 45.9 4.7 SSE 12.4 SE 0.0
14:25 26.8 47.7 6.4 SSE 11.6 SE 0.0
14:30 26.4 50.1 8.3 S 13.1 S 0.0
14:35 26.0 53.9 4.6 SW 11.6 S 0.0
14:40 25.9 54.3 3.9 SSW 9.5 S 0.0
14:45 26.4 51.8 7.7 SSE 12.0 S 0.0
14:50 27.6 48.6 5.6 S 11.3 SW 0.0
14:55 27.2 49.4 6.8 SSE 12.4 SSE 0.0
15:00 26.6 52.5 5.9 SSW 13.4 SW 0.0
15:05 26.3 54.2 4.1 SSW 10.2 S 0.0
15:10 26.2 53.4 4.6 SSW 8.8 S 0.0
15:15 25.8 54.2 2.2 SW 5.6 SW 0.0
15:20 25.7 55.4 2.9 S 6.0 SSW 0.0
15:25 25.8 54.9 2.8 SSW 6.7 SSW 0.0
15:30 25.9 55.3 0.6 WSW 2.5 W 0.0
15:35 26.1 52.8 1.1 NE 3.5 NE 0.0
15:40 26.1 53.7 0.6 E 2.1 ENE 0.0
15:45 26.0 54.3 1.3 SE 3.9 SE 0.0
15:50 26.0 57.6 2.2 S 4.2 S 0.0
15:55 26.3 55.3 3.7 S 5.6 S 0.0
16:00 26.9 51.3 2.1 WSW 5.3 SW 0.0
16:05 26.6 53.7 2.0 SW 3.5 S 0.0
16:10 26.1 56.4 7.4 S 16.2 S 0.0
16:15 25.4 59.7 9.6 SSW 17.3 S 0.0
16:20 25.0 62.0 6.1 SSW 13.1 S 0.0
16:25 24.8 63.3 6.1 SSW 14.5 S 0.0
16:30 24.7 63.6 6.7 SSW 14.1 SSW 0.0
16:35 24.5 64.5 6.5 SSW 15.2 SW 0.0
16:40 24.4 65.3 5.7 SW 15.2 S 0.0
16:45 24.3 65.7 7.0 SSW 15.5 S 0.0
16:50 24.2 65.6 8.6 S 16.9 S 0.0
16:55 24.1 66.8 5.2 SSW 9.2 SSW 0.0
17:00 24.0 66.4 7.9 SW 16.9 SW 0.0
17:05 23.8 66.8 7.3 S 19.4 SSW 0.0
17:10 23.7 67.7 5.2 SW 11.6 SSW 0.0
17:15 23.6 67.6 3.0 S 7.1 SE 0.0
17:20 23.5 68.2 3.5 SW 10.2 WSW 0.0
17:25 23.5 69.1 5.0 SSW 10.6 S 0.0
17:30 23.3 68.7 3.6 SSE 7.8 SSE 0.0
17:35 23.3 68.9 3.5 SSE 7.4 SE 0.0
17:40 23.3 69.7 2.3 S 6.0 SSW 0.0
17:45 23.1 69.6 5.3 SSW 10.9 SSW 0.0
17:50 22.9 69.4 4.2 WSW 7.4 SW 0.0
17:55 22.7 70.4 6.2 SW 14.5 W 0.0
18:00 22.5 71.2 7.7 SSW 14.5 S 0.0
18:05 22.4 71.6 8.3 S 17.6 SSE 0.0
18:10 22.3 71.8 4.2 SSW 8.8 SSW 0.0
18:15 22.2 71.5 1.9 WSW 5.6 WSW 0.0
18:20 22.2 72.4 5.2 SSW 13.8 SSW 0.0
18:25 22.1 72.5 4.9 SSW 13.4 SSW 0.0
18:30 22.0 72.5 3.9 SSW 11.3 SW 0.0
18:35 22.0 72.8 4.2 SSW 8.1 SSE 0.0
18:40 21.9 72.9 3.5 SSW 9.9 S 0.0
18:45 21.9 73.5 2.0 SSW 7.8 S 0.0
18:50 21.9 73.3 0.7 ENE 3.5 ENE 0.0
18:55 21.8 73.8 2.1 NNE 4.6 E 0.0
19:00 21.8 74.1 1.0 NNW 2.8 N 0.0
19:05 21.6 75.1 0.0 NNW 1.1 NNW 0.0
19:10 21.4 76.0 0.0 N 1.4 N 0.0
19:15 21.3 76.0 1.3 NW 2.5 NW 0.0
19:20 21.3 76.8 1.3 NNW 2.1 NNW 0.0
19:25 21.1 77.1 0.2 NNW 1.8 NW 0.0
19:30 21.1 77.2 0.0 NNE 0.0 NNW 0.0
19:35 21.1 77.4 0.1 SSW 1.4 SSW 0.0
19:40 21.0 77.5 0.3 SSW 1.8 SSW 0.0
19:45 21.0 77.2 0.0 NNE 0.0 W 0.0
19:50 20.9 77.8 0.1 NW 1.4 WNW 0.0
19:55 20.8 78.3 0.0 WNW 1.1 W 0.0
20:00 20.7 78.6 0.1 WSW 1.4 WSW 0.0
20:05 20.7 78.6 0.2 N 1.4 NNW 0.0
20:10 20.5 79.1 1.3 N 2.5 N 0.0
20:15 20.3 80.0 1.0 NNW 3.2 NNW 0.0
20:20 20.1 80.5 0.0 NNE 0.0 NNW 0.0
20:25 20.0 81.2 0.0 WSW 1.1 WSW 0.0
20:30 20.0 81.4 0.0 NNE 0.0 WSW 0.0
20:35 19.8 81.9 0.2 SSW 1.8 SSW 0.0
20:40 19.7 82.8 0.1 SSW 1.8 SSW 0.0
20:45 19.6 83.4 1.0 WSW 2.1 W 0.0
20:50 19.5 83.9 1.3 W 2.5 W 0.0
20:55 19.4 83.6 0.1 WSW 1.4 WSW 0.0
21:00 19.3 84.2 0.0 NNE 0.0 SW 0.0
21:05 19.1 84.3 0.0 NNE 0.0 W 0.0
Máxima 28.9 84.4 11.1 SSE 23.6 SSE 0.0
Mínima 15.1 41.2
Total 0.0